sensor_id;sensor_type;location;lat;lon;timestamp;P1;durP1;ratioP1;P2;durP2;ratioP2
4274;SDS011;2151;50.988;11.068;2023-08-08T00:02:16;117.23;;;6.20;;
4274;SDS011;2151;50.988;11.068;2023-08-08T00:04:43;116.90;;;5.60;;
4274;SDS011;2151;50.988;11.068;2023-08-08T00:07:10;113.80;;;5.97;;
4274;SDS011;2151;50.988;11.068;2023-08-08T00:09:36;116.40;;;7.20;;
4274;SDS011;2151;50.988;11.068;2023-08-08T00:12:04;115.97;;;5.37;;
4274;SDS011;2151;50.988;11.068;2023-08-08T00:14:30;115.27;;;5.80;;
4274;SDS011;2151;50.988;11.068;2023-08-08T00:16:57;114.60;;;6.40;;
4274;SDS011;2151;50.988;11.068;2023-08-08T00:19:24;116.80;;;6.20;;
4274;SDS011;2151;50.988;11.068;2023-08-08T00:21:50;116.47;;;5.90;;
4274;SDS011;2151;50.988;11.068;2023-08-08T00:24:17;117.73;;;6.07;;
4274;SDS011;2151;50.988;11.068;2023-08-08T00:26:43;113.33;;;5.50;;
4274;SDS011;2151;50.988;11.068;2023-08-08T00:29:10;119.27;;;5.97;;
4274;SDS011;2151;50.988;11.068;2023-08-08T00:31:36;114.77;;;6.27;;
4274;SDS011;2151;50.988;11.068;2023-08-08T00:34:03;114.70;;;5.77;;
4274;SDS011;2151;50.988;11.068;2023-08-08T00:36:30;113.80;;;6.20;;
4274;SDS011;2151;50.988;11.068;2023-08-08T00:38:56;115.47;;;5.80;;
4274;SDS011;2151;50.988;11.068;2023-08-08T00:41:23;113.00;;;5.70;;
4274;SDS011;2151;50.988;11.068;2023-08-08T00:43:49;116.97;;;6.00;;
4274;SDS011;2151;50.988;11.068;2023-08-08T00:46:17;117.57;;;5.97;;
4274;SDS011;2151;50.988;11.068;2023-08-08T00:48:48;117.47;;;5.90;;
4274;SDS011;2151;50.988;11.068;2023-08-08T00:51:15;123.97;;;7.07;;
4274;SDS011;2151;50.988;11.068;2023-08-08T00:53:43;113.57;;;6.13;;
4274;SDS011;2151;50.988;11.068;2023-08-08T00:56:13;113.87;;;5.63;;
4274;SDS011;2151;50.988;11.068;2023-08-08T00:58:40;114.93;;;5.47;;
4274;SDS011;2151;50.988;11.068;2023-08-08T01:01:06;115.93;;;6.00;;
4274;SDS011;2151;50.988;11.068;2023-08-08T01:03:33;115.80;;;5.83;;
4274;SDS011;2151;50.988;11.068;2023-08-08T01:06:11;118.37;;;5.90;;
4274;SDS011;2151;50.988;11.068;2023-08-08T01:09:03;114.03;;;5.60;;
4274;SDS011;2151;50.988;11.068;2023-08-08T01:11:30;114.97;;;5.90;;
4274;SDS011;2151;50.988;11.068;2023-08-08T01:13:58;114.40;;;6.53;;
4274;SDS011;2151;50.988;11.068;2023-08-08T01:16:25;113.73;;;5.53;;
4274;SDS011;2151;50.988;11.068;2023-08-08T01:18:52;118.60;;;6.23;;
4274;SDS011;2151;50.988;11.068;2023-08-08T01:21:20;115.77;;;6.30;;
4274;SDS011;2151;50.988;11.068;2023-08-08T01:23:52;116.87;;;6.10;;
4274;SDS011;2151;50.988;11.068;2023-08-08T01:26:20;115.60;;;5.63;;
4274;SDS011;2151;50.988;11.068;2023-08-08T01:28:48;117.10;;;6.30;;
4274;SDS011;2151;50.988;11.068;2023-08-08T01:31:14;114.37;;;6.60;;
4274;SDS011;2151;50.988;11.068;2023-08-08T01:33:41;114.47;;;6.00;;
4274;SDS011;2151;50.988;11.068;2023-08-08T01:36:10;116.70;;;6.30;;
4274;SDS011;2151;50.988;11.068;2023-08-08T01:38:43;115.30;;;6.27;;
4274;SDS011;2151;50.988;11.068;2023-08-08T01:41:10;114.70;;;5.87;;
4274;SDS011;2151;50.988;11.068;2023-08-08T01:43:37;115.77;;;5.77;;
4274;SDS011;2151;50.988;11.068;2023-08-08T01:46:04;114.60;;;6.07;;
4274;SDS011;2151;50.988;11.068;2023-08-08T01:48:31;117.27;;;6.03;;
4274;SDS011;2151;50.988;11.068;2023-08-08T01:50:57;116.00;;;6.07;;
4274;SDS011;2151;50.988;11.068;2023-08-08T01:53:24;115.47;;;6.40;;
4274;SDS011;2151;50.988;11.068;2023-08-08T01:55:50;115.77;;;6.27;;
4274;SDS011;2151;50.988;11.068;2023-08-08T01:58:18;115.83;;;6.00;;
4274;SDS011;2151;50.988;11.068;2023-08-08T02:00:45;114.50;;;6.03;;
4274;SDS011;2151;50.988;11.068;2023-08-08T02:03:13;114.30;;;6.37;;
4274;SDS011;2151;50.988;11.068;2023-08-08T02:05:40;116.00;;;6.50;;
4274;SDS011;2151;50.988;11.068;2023-08-08T02:08:06;114.17;;;6.03;;
4274;SDS011;2151;50.988;11.068;2023-08-08T02:10:33;115.47;;;6.43;;
4274;SDS011;2151;50.988;11.068;2023-08-08T02:12:59;115.97;;;6.60;;
4274;SDS011;2151;50.988;11.068;2023-08-08T02:15:26;115.97;;;6.30;;
4274;SDS011;2151;50.988;11.068;2023-08-08T02:17:52;117.03;;;6.70;;
4274;SDS011;2151;50.988;11.068;2023-08-08T02:20:19;117.23;;;6.17;;
4274;SDS011;2151;50.988;11.068;2023-08-08T02:22:46;117.27;;;6.70;;
4274;SDS011;2151;50.988;11.068;2023-08-08T02:25:12;114.37;;;6.13;;
4274;SDS011;2151;50.988;11.068;2023-08-08T02:27:39;116.30;;;6.70;;
4274;SDS011;2151;50.988;11.068;2023-08-08T02:30:05;117.00;;;6.40;;
4274;SDS011;2151;50.988;11.068;2023-08-08T02:32:33;114.87;;;6.20;;
4274;SDS011;2151;50.988;11.068;2023-08-08T02:34:59;119.80;;;6.67;;
4274;SDS011;2151;50.988;11.068;2023-08-08T02:37:26;120.77;;;6.80;;
4274;SDS011;2151;50.988;11.068;2023-08-08T02:39:53;118.70;;;7.77;;
4274;SDS011;2151;50.988;11.068;2023-08-08T02:42:19;117.37;;;6.67;;
4274;SDS011;2151;50.988;11.068;2023-08-08T02:44:46;115.07;;;5.90;;
4274;SDS011;2151;50.988;11.068;2023-08-08T02:47:12;113.80;;;6.30;;
4274;SDS011;2151;50.988;11.068;2023-08-08T02:49:39;118.07;;;6.43;;
4274;SDS011;2151;50.988;11.068;2023-08-08T02:52:06;120.00;;;7.00;;
4274;SDS011;2151;50.988;11.068;2023-08-08T02:54:32;117.70;;;6.73;;
4274;SDS011;2151;50.988;11.068;2023-08-08T02:56:59;115.97;;;6.17;;
4274;SDS011;2151;50.988;11.068;2023-08-08T02:59:26;119.83;;;6.43;;
4274;SDS011;2151;50.988;11.068;2023-08-08T03:01:53;114.93;;;6.63;;
4274;SDS011;2151;50.988;11.068;2023-08-08T03:04:20;114.27;;;5.97;;
4274;SDS011;2151;50.988;11.068;2023-08-08T03:06:46;115.60;;;6.13;;
4274;SDS011;2151;50.988;11.068;2023-08-08T03:09:13;116.97;;;6.50;;
4274;SDS011;2151;50.988;11.068;2023-08-08T03:11:39;117.17;;;6.40;;
4274;SDS011;2151;50.988;11.068;2023-08-08T03:14:08;117.93;;;7.00;;
4274;SDS011;2151;50.988;11.068;2023-08-08T03:16:37;118.07;;;6.50;;
4274;SDS011;2151;50.988;11.068;2023-08-08T03:19:04;116.87;;;6.17;;
4274;SDS011;2151;50.988;11.068;2023-08-08T03:21:30;117.47;;;6.40;;
4274;SDS011;2151;50.988;11.068;2023-08-08T03:23:57;116.90;;;7.70;;
4274;SDS011;2151;50.988;11.068;2023-08-08T03:26:24;114.83;;;6.53;;
4274;SDS011;2151;50.988;11.068;2023-08-08T03:28:50;118.97;;;6.40;;
4274;SDS011;2151;50.988;11.068;2023-08-08T03:31:20;114.27;;;5.90;;
4274;SDS011;2151;50.988;11.068;2023-08-08T03:33:47;116.77;;;6.60;;
4274;SDS011;2151;50.988;11.068;2023-08-08T03:36:14;117.60;;;6.00;;
4274;SDS011;2151;50.988;11.068;2023-08-08T03:38:41;115.40;;;5.60;;
4274;SDS011;2151;50.988;11.068;2023-08-08T03:41:12;113.47;;;6.07;;
4274;SDS011;2151;50.988;11.068;2023-08-08T03:43:39;114.90;;;5.63;;
4274;SDS011;2151;50.988;11.068;2023-08-08T03:46:06;115.70;;;5.60;;
4274;SDS011;2151;50.988;11.068;2023-08-08T03:48:33;117.37;;;5.80;;
4274;SDS011;2151;50.988;11.068;2023-08-08T03:50:59;117.63;;;6.23;;
4274;SDS011;2151;50.988;11.068;2023-08-08T03:53:26;114.87;;;6.20;;
4274;SDS011;2151;50.988;11.068;2023-08-08T03:55:52;115.20;;;5.73;;
4274;SDS011;2151;50.988;11.068;2023-08-08T03:58:19;120.67;;;6.43;;
4274;SDS011;2151;50.988;11.068;2023-08-08T04:00:45;119.67;;;7.23;;
4274;SDS011;2151;50.988;11.068;2023-08-08T04:03:13;119.17;;;6.60;;
4274;SDS011;2151;50.988;11.068;2023-08-08T04:05:43;114.07;;;5.83;;
4274;SDS011;2151;50.988;11.068;2023-08-08T04:08:13;113.80;;;5.57;;
4274;SDS011;2151;50.988;11.068;2023-08-08T04:10:40;113.57;;;6.23;;
4274;SDS011;2151;50.988;11.068;2023-08-08T04:13:07;114.80;;;6.77;;
4274;SDS011;2151;50.988;11.068;2023-08-08T04:15:33;114.23;;;5.67;;
4274;SDS011;2151;50.988;11.068;2023-08-08T04:18:00;119.40;;;6.53;;
4274;SDS011;2151;50.988;11.068;2023-08-08T04:20:26;118.07;;;7.37;;
4274;SDS011;2151;50.988;11.068;2023-08-08T04:22:53;115.20;;;6.27;;
4274;SDS011;2151;50.988;11.068;2023-08-08T04:25:19;114.77;;;6.50;;
4274;SDS011;2151;50.988;11.068;2023-08-08T04:27:47;114.13;;;6.60;;
4274;SDS011;2151;50.988;11.068;2023-08-08T04:30:13;115.57;;;6.03;;
4274;SDS011;2151;50.988;11.068;2023-08-08T04:32:40;117.40;;;5.90;;
4274;SDS011;2151;50.988;11.068;2023-08-08T04:35:07;117.17;;;6.00;;
4274;SDS011;2151;50.988;11.068;2023-08-08T04:37:33;117.53;;;6.40;;
4274;SDS011;2151;50.988;11.068;2023-08-08T04:40:00;115.67;;;6.90;;
4274;SDS011;2151;50.988;11.068;2023-08-08T04:42:26;116.07;;;6.87;;
4274;SDS011;2151;50.988;11.068;2023-08-08T04:44:53;119.23;;;6.80;;
4274;SDS011;2151;50.988;11.068;2023-08-08T04:47:20;116.50;;;7.47;;
4274;SDS011;2151;50.988;11.068;2023-08-08T04:49:46;118.00;;;7.40;;
4274;SDS011;2151;50.988;11.068;2023-08-08T04:52:13;117.73;;;7.90;;
4274;SDS011;2151;50.988;11.068;2023-08-08T04:54:39;117.70;;;7.00;;
4274;SDS011;2151;50.988;11.068;2023-08-08T04:57:06;117.30;;;7.87;;
4274;SDS011;2151;50.988;11.068;2023-08-08T04:59:33;117.40;;;7.70;;
4274;SDS011;2151;50.988;11.068;2023-08-08T05:01:59;117.53;;;7.60;;
4274;SDS011;2151;50.988;11.068;2023-08-08T05:04:26;117.70;;;7.20;;
4274;SDS011;2151;50.988;11.068;2023-08-08T05:06:53;116.67;;;7.60;;
4274;SDS011;2151;50.988;11.068;2023-08-08T05:09:19;117.30;;;7.47;;
4274;SDS011;2151;50.988;11.068;2023-08-08T05:11:47;117.57;;;7.77;;
4274;SDS011;2151;50.988;11.068;2023-08-08T05:14:13;121.10;;;7.53;;
4274;SDS011;2151;50.988;11.068;2023-08-08T05:16:40;119.97;;;7.60;;
4274;SDS011;2151;50.988;11.068;2023-08-08T05:19:07;119.40;;;7.00;;
4274;SDS011;2151;50.988;11.068;2023-08-08T05:21:34;116.10;;;7.20;;
4274;SDS011;2151;50.988;11.068;2023-08-08T05:24:00;117.10;;;7.17;;
4274;SDS011;2151;50.988;11.068;2023-08-08T05:26:27;118.10;;;7.67;;
4274;SDS011;2151;50.988;11.068;2023-08-08T05:28:53;116.53;;;6.80;;
4274;SDS011;2151;50.988;11.068;2023-08-08T05:31:20;120.00;;;6.87;;
4274;SDS011;2151;50.988;11.068;2023-08-08T05:33:50;116.37;;;6.50;;
4274;SDS011;2151;50.988;11.068;2023-08-08T05:36:16;115.60;;;5.87;;
4274;SDS011;2151;50.988;11.068;2023-08-08T05:38:43;116.37;;;6.30;;
4274;SDS011;2151;50.988;11.068;2023-08-08T05:41:10;115.77;;;7.03;;
4274;SDS011;2151;50.988;11.068;2023-08-08T05:43:36;117.60;;;6.40;;
4274;SDS011;2151;50.988;11.068;2023-08-08T05:46:03;115.77;;;7.00;;
4274;SDS011;2151;50.988;11.068;2023-08-08T05:48:29;117.37;;;6.97;;
4274;SDS011;2151;50.988;11.068;2023-08-08T05:50:56;119.10;;;6.80;;
4274;SDS011;2151;50.988;11.068;2023-08-08T05:53:25;115.60;;;6.40;;
4274;SDS011;2151;50.988;11.068;2023-08-08T05:55:51;116.80;;;6.67;;
4274;SDS011;2151;50.988;11.068;2023-08-08T05:58:18;118.00;;;7.70;;
4274;SDS011;2151;50.988;11.068;2023-08-08T06:00:45;116.17;;;6.97;;
4274;SDS011;2151;50.988;11.068;2023-08-08T06:03:11;121.40;;;6.87;;
4274;SDS011;2151;50.988;11.068;2023-08-08T06:05:38;116.10;;;6.70;;
4274;SDS011;2151;50.988;11.068;2023-08-08T06:08:04;116.47;;;6.70;;
4274;SDS011;2151;50.988;11.068;2023-08-08T06:10:33;123.10;;;6.87;;
4274;SDS011;2151;50.988;11.068;2023-08-08T06:13:00;116.10;;;6.33;;
4274;SDS011;2151;50.988;11.068;2023-08-08T06:15:27;115.37;;;6.20;;
4274;SDS011;2151;50.988;11.068;2023-08-08T06:17:53;115.77;;;5.90;;
4274;SDS011;2151;50.988;11.068;2023-08-08T06:20:20;115.27;;;6.87;;
4274;SDS011;2151;50.988;11.068;2023-08-08T06:22:48;116.57;;;6.33;;
4274;SDS011;2151;50.988;11.068;2023-08-08T06:25:15;116.27;;;5.90;;
4274;SDS011;2151;50.988;11.068;2023-08-08T06:27:42;115.60;;;6.90;;
4274;SDS011;2151;50.988;11.068;2023-08-08T06:30:08;116.37;;;6.03;;
4274;SDS011;2151;50.988;11.068;2023-08-08T06:32:35;117.60;;;6.30;;
4274;SDS011;2151;50.988;11.068;2023-08-08T06:35:02;118.90;;;6.17;;
4274;SDS011;2151;50.988;11.068;2023-08-08T06:37:28;118.33;;;6.73;;
4274;SDS011;2151;50.988;11.068;2023-08-08T06:39:55;116.90;;;6.23;;
4274;SDS011;2151;50.988;11.068;2023-08-08T06:42:22;116.53;;;6.40;;
4274;SDS011;2151;50.988;11.068;2023-08-08T06:44:48;113.80;;;6.57;;
4274;SDS011;2151;50.988;11.068;2023-08-08T06:47:15;117.67;;;6.77;;
4274;SDS011;2151;50.988;11.068;2023-08-08T06:49:42;115.90;;;5.90;;
4274;SDS011;2151;50.988;11.068;2023-08-08T06:52:08;113.60;;;6.03;;
4274;SDS011;2151;50.988;11.068;2023-08-08T06:54:35;113.67;;;6.37;;
4274;SDS011;2151;50.988;11.068;2023-08-08T06:57:01;114.63;;;6.30;;
4274;SDS011;2151;50.988;11.068;2023-08-08T06:59:28;117.37;;;6.17;;
4274;SDS011;2151;50.988;11.068;2023-08-08T07:01:55;117.20;;;7.23;;
4274;SDS011;2151;50.988;11.068;2023-08-08T07:04:22;117.27;;;6.40;;
4274;SDS011;2151;50.988;11.068;2023-08-08T07:06:49;113.23;;;5.60;;
4274;SDS011;2151;50.988;11.068;2023-08-08T07:09:16;113.20;;;5.90;;
4274;SDS011;2151;50.988;11.068;2023-08-08T07:11:43;113.00;;;5.93;;
4274;SDS011;2151;50.988;11.068;2023-08-08T07:14:10;114.57;;;6.13;;
4274;SDS011;2151;50.988;11.068;2023-08-08T07:16:37;116.60;;;6.57;;
4274;SDS011;2151;50.988;11.068;2023-08-08T07:19:03;117.10;;;5.43;;
4274;SDS011;2151;50.988;11.068;2023-08-08T07:21:32;115.50;;;5.77;;
4274;SDS011;2151;50.988;11.068;2023-08-08T07:23:58;116.43;;;6.70;;
4274;SDS011;2151;50.988;11.068;2023-08-08T07:26:25;114.37;;;5.80;;
4274;SDS011;2151;50.988;11.068;2023-08-08T07:28:52;119.27;;;5.87;;
4274;SDS011;2151;50.988;11.068;2023-08-08T07:31:18;112.50;;;5.90;;
4274;SDS011;2151;50.988;11.068;2023-08-08T07:33:45;112.30;;;5.63;;
4274;SDS011;2151;50.988;11.068;2023-08-08T07:36:12;113.70;;;6.20;;
4274;SDS011;2151;50.988;11.068;2023-08-08T07:38:39;113.87;;;6.17;;
4274;SDS011;2151;50.988;11.068;2023-08-08T07:41:06;114.47;;;5.60;;
4274;SDS011;2151;50.988;11.068;2023-08-08T07:43:33;115.37;;;6.20;;
4274;SDS011;2151;50.988;11.068;2023-08-08T07:46:00;112.40;;;5.60;;
4274;SDS011;2151;50.988;11.068;2023-08-08T07:48:28;113.70;;;5.93;;
4274;SDS011;2151;50.988;11.068;2023-08-08T07:50:55;112.77;;;5.33;;
4274;SDS011;2151;50.988;11.068;2023-08-08T07:53:22;114.43;;;5.90;;
4274;SDS011;2151;50.988;11.068;2023-08-08T07:55:48;113.83;;;5.63;;
4274;SDS011;2151;50.988;11.068;2023-08-08T07:58:15;112.67;;;5.10;;
4274;SDS011;2151;50.988;11.068;2023-08-08T08:00:41;119.80;;;5.30;;
4274;SDS011;2151;50.988;11.068;2023-08-08T08:03:08;112.30;;;5.87;;
4274;SDS011;2151;50.988;11.068;2023-08-08T08:05:35;113.60;;;5.80;;
4274;SDS011;2151;50.988;11.068;2023-08-08T08:08:03;112.20;;;5.33;;
4274;SDS011;2151;50.988;11.068;2023-08-08T08:10:30;112.80;;;5.50;;
4274;SDS011;2151;50.988;11.068;2023-08-08T08:12:57;113.37;;;5.73;;
4274;SDS011;2151;50.988;11.068;2023-08-08T08:15:25;113.67;;;5.83;;
4274;SDS011;2151;50.988;11.068;2023-08-08T08:17:52;111.80;;;5.23;;
4274;SDS011;2151;50.988;11.068;2023-08-08T08:20:19;113.27;;;5.57;;
4274;SDS011;2151;50.988;11.068;2023-08-08T08:22:45;114.20;;;5.93;;
4274;SDS011;2151;50.988;11.068;2023-08-08T08:25:13;113.90;;;5.60;;
4274;SDS011;2151;50.988;11.068;2023-08-08T08:27:40;113.70;;;5.77;;
4274;SDS011;2151;50.988;11.068;2023-08-08T08:30:07;111.10;;;5.83;;
4274;SDS011;2151;50.988;11.068;2023-08-08T08:32:36;112.40;;;6.27;;
4274;SDS011;2151;50.988;11.068;2023-08-08T08:35:03;112.77;;;6.13;;
4274;SDS011;2151;50.988;11.068;2023-08-08T08:37:32;111.13;;;5.70;;
4274;SDS011;2151;50.988;11.068;2023-08-08T08:39:59;118.17;;;6.20;;
4274;SDS011;2151;50.988;11.068;2023-08-08T08:42:26;112.90;;;6.20;;
4274;SDS011;2151;50.988;11.068;2023-08-08T08:44:56;110.97;;;5.73;;
4274;SDS011;2151;50.988;11.068;2023-08-08T08:47:24;113.77;;;7.43;;
4274;SDS011;2151;50.988;11.068;2023-08-08T08:49:54;115.40;;;7.20;;
4274;SDS011;2151;50.988;11.068;2023-08-08T08:52:21;115.43;;;8.70;;
4274;SDS011;2151;50.988;11.068;2023-08-08T08:54:50;113.30;;;8.40;;
4274;SDS011;2151;50.988;11.068;2023-08-08T08:57:17;114.50;;;9.40;;
4274;SDS011;2151;50.988;11.068;2023-08-08T08:59:43;114.20;;;8.77;;
4274;SDS011;2151;50.988;11.068;2023-08-08T09:02:10;114.73;;;8.90;;
4274;SDS011;2151;50.988;11.068;2023-08-08T09:04:37;114.03;;;9.10;;
4274;SDS011;2151;50.988;11.068;2023-08-08T09:07:05;115.30;;;8.60;;
4274;SDS011;2151;50.988;11.068;2023-08-08T09:09:32;116.47;;;8.70;;
4274;SDS011;2151;50.988;11.068;2023-08-08T09:12:01;116.57;;;8.40;;
4274;SDS011;2151;50.988;11.068;2023-08-08T09:14:29;115.57;;;7.90;;
4274;SDS011;2151;50.988;11.068;2023-08-08T09:16:56;118.47;;;8.27;;
4274;SDS011;2151;50.988;11.068;2023-08-08T09:19:23;116.27;;;7.90;;
4274;SDS011;2151;50.988;11.068;2023-08-08T09:21:51;115.27;;;8.20;;
4274;SDS011;2151;50.988;11.068;2023-08-08T09:24:18;116.70;;;7.97;;
4274;SDS011;2151;50.988;11.068;2023-08-08T09:26:45;115.80;;;7.50;;
4274;SDS011;2151;50.988;11.068;2023-08-08T09:29:13;116.10;;;7.93;;
4274;SDS011;2151;50.988;11.068;2023-08-08T09:31:41;114.87;;;7.70;;
4274;SDS011;2151;50.988;11.068;2023-08-08T09:34:07;116.37;;;7.40;;
4274;SDS011;2151;50.988;11.068;2023-08-08T09:36:34;113.50;;;7.20;;
4274;SDS011;2151;50.988;11.068;2023-08-08T09:39:02;116.00;;;7.00;;
4274;SDS011;2151;50.988;11.068;2023-08-08T09:41:29;115.23;;;6.47;;
4274;SDS011;2151;50.988;11.068;2023-08-08T09:43:58;112.07;;;5.73;;
4274;SDS011;2151;50.988;11.068;2023-08-08T09:46:25;113.90;;;5.37;;
4274;SDS011;2151;50.988;11.068;2023-08-08T09:48:51;110.80;;;5.10;;
4274;SDS011;2151;50.988;11.068;2023-08-08T09:51:18;109.50;;;4.90;;
4274;SDS011;2151;50.988;11.068;2023-08-08T09:53:46;114.87;;;4.70;;
4274;SDS011;2151;50.988;11.068;2023-08-08T09:56:13;111.17;;;5.07;;
4274;SDS011;2151;50.988;11.068;2023-08-08T09:58:41;110.57;;;4.77;;
4274;SDS011;2151;50.988;11.068;2023-08-08T10:01:09;109.87;;;5.00;;
4274;SDS011;2151;50.988;11.068;2023-08-08T10:03:36;111.37;;;4.87;;
4274;SDS011;2151;50.988;11.068;2023-08-08T10:06:04;108.93;;;4.73;;
4274;SDS011;2151;50.988;11.068;2023-08-08T10:08:31;109.90;;;4.40;;
4274;SDS011;2151;50.988;11.068;2023-08-08T10:10:58;111.57;;;4.40;;
4274;SDS011;2151;50.988;11.068;2023-08-08T10:13:25;114.27;;;4.80;;
4274;SDS011;2151;50.988;11.068;2023-08-08T10:15:53;111.70;;;4.90;;
4274;SDS011;2151;50.988;11.068;2023-08-08T10:18:23;110.80;;;5.30;;
4274;SDS011;2151;50.988;11.068;2023-08-08T10:20:50;112.13;;;5.50;;
4274;SDS011;2151;50.988;11.068;2023-08-08T10:23:19;113.87;;;6.00;;
4274;SDS011;2151;50.988;11.068;2023-08-08T10:25:47;111.87;;;5.70;;
4274;SDS011;2151;50.988;11.068;2023-08-08T10:28:16;111.07;;;5.47;;
4274;SDS011;2151;50.988;11.068;2023-08-08T10:30:56;112.70;;;5.70;;
4274;SDS011;2151;50.988;11.068;2023-08-08T10:33:24;112.07;;;5.33;;
4274;SDS011;2151;50.988;11.068;2023-08-08T10:38:22;112.73;;;6.03;;
4274;SDS011;2151;50.988;11.068;2023-08-08T10:40:57;113.23;;;5.90;;
4274;SDS011;2151;50.988;11.068;2023-08-08T10:43:25;111.90;;;5.80;;
4274;SDS011;2151;50.988;11.068;2023-08-08T10:45:59;112.93;;;5.87;;
4274;SDS011;2151;50.988;11.068;2023-08-08T10:48:48;111.40;;;5.30;;
4274;SDS011;2151;50.988;11.068;2023-08-08T10:51:17;110.67;;;5.13;;
4274;SDS011;2151;50.988;11.068;2023-08-08T10:53:43;111.37;;;5.00;;
4274;SDS011;2151;50.988;11.068;2023-08-08T10:56:14;111.27;;;5.10;;
4274;SDS011;2151;50.988;11.068;2023-08-08T10:58:41;108.97;;;4.87;;
4274;SDS011;2151;50.988;11.068;2023-08-08T11:01:13;110.83;;;4.63;;
4274;SDS011;2151;50.988;11.068;2023-08-08T11:03:41;108.37;;;4.70;;
4274;SDS011;2151;50.988;11.068;2023-08-08T11:06:08;108.10;;;4.57;;
4274;SDS011;2151;50.988;11.068;2023-08-08T11:08:36;108.87;;;4.47;;
4274;SDS011;2151;50.988;11.068;2023-08-08T11:11:05;107.90;;;4.60;;
4274;SDS011;2151;50.988;11.068;2023-08-08T11:13:32;108.47;;;4.50;;
4274;SDS011;2151;50.988;11.068;2023-08-08T11:16:00;114.33;;;4.70;;
4274;SDS011;2151;50.988;11.068;2023-08-08T11:18:28;109.10;;;4.60;;
4274;SDS011;2151;50.988;11.068;2023-08-08T11:20:55;107.67;;;4.67;;
4274;SDS011;2151;50.988;11.068;2023-08-08T11:23:38;107.93;;;4.50;;
4274;SDS011;2151;50.988;11.068;2023-08-08T11:26:05;107.67;;;4.50;;
4274;SDS011;2151;50.988;11.068;2023-08-08T11:28:34;107.60;;;4.30;;
4274;SDS011;2151;50.988;11.068;2023-08-08T11:31:01;109.10;;;4.93;;
4274;SDS011;2151;50.988;11.068;2023-08-08T11:33:29;107.07;;;4.40;;
4274;SDS011;2151;50.988;11.068;2023-08-08T11:35:55;105.90;;;3.90;;
4274;SDS011;2151;50.988;11.068;2023-08-08T11:38:22;107.43;;;4.60;;
4274;SDS011;2151;50.988;11.068;2023-08-08T11:40:50;107.87;;;4.30;;
4274;SDS011;2151;50.988;11.068;2023-08-08T11:43:18;109.90;;;4.57;;
4274;SDS011;2151;50.988;11.068;2023-08-08T11:45:45;108.10;;;4.70;;
4274;SDS011;2151;50.988;11.068;2023-08-08T11:48:12;110.30;;;4.60;;
4274;SDS011;2151;50.988;11.068;2023-08-08T11:50:38;107.87;;;4.30;;
4274;SDS011;2151;50.988;11.068;2023-08-08T11:53:08;109.93;;;4.77;;
4274;SDS011;2151;50.988;11.068;2023-08-08T11:55:35;108.17;;;4.83;;
4274;SDS011;2151;50.988;11.068;2023-08-08T11:58:02;107.17;;;4.30;;
4274;SDS011;2151;50.988;11.068;2023-08-08T12:00:29;110.27;;;4.90;;
4274;SDS011;2151;50.988;11.068;2023-08-08T12:02:57;114.90;;;5.00;;
4274;SDS011;2151;50.988;11.068;2023-08-08T12:05:25;107.57;;;4.77;;
4274;SDS011;2151;50.988;11.068;2023-08-08T12:07:51;110.47;;;4.17;;
4274;SDS011;2151;50.988;11.068;2023-08-08T12:10:20;108.87;;;4.50;;
4274;SDS011;2151;50.988;11.068;2023-08-08T12:12:52;109.27;;;4.57;;
4274;SDS011;2151;50.988;11.068;2023-08-08T12:15:20;110.33;;;5.10;;
4274;SDS011;2151;50.988;11.068;2023-08-08T12:17:47;108.67;;;4.93;;
4274;SDS011;2151;50.988;11.068;2023-08-08T12:20:14;109.50;;;5.00;;
4274;SDS011;2151;50.988;11.068;2023-08-08T12:22:41;109.70;;;4.60;;
4274;SDS011;2151;50.988;11.068;2023-08-08T12:25:07;108.90;;;4.53;;
4274;SDS011;2151;50.988;11.068;2023-08-08T12:27:34;107.60;;;4.90;;
4274;SDS011;2151;50.988;11.068;2023-08-08T12:30:01;107.57;;;4.20;;
4274;SDS011;2151;50.988;11.068;2023-08-08T12:32:27;107.73;;;4.57;;
4274;SDS011;2151;50.988;11.068;2023-08-08T12:34:55;120.90;;;6.20;;
4274;SDS011;2151;50.988;11.068;2023-08-08T12:37:22;112.47;;;5.07;;
4274;SDS011;2151;50.988;11.068;2023-08-08T12:39:50;108.50;;;4.40;;
4274;SDS011;2151;50.988;11.068;2023-08-08T12:42:17;108.50;;;4.67;;
4274;SDS011;2151;50.988;11.068;2023-08-08T12:44:44;107.57;;;4.93;;
4274;SDS011;2151;50.988;11.068;2023-08-08T12:47:11;108.97;;;4.57;;
4274;SDS011;2151;50.988;11.068;2023-08-08T12:49:40;109.90;;;5.03;;
4274;SDS011;2151;50.988;11.068;2023-08-08T12:52:07;108.00;;;4.70;;
4274;SDS011;2151;50.988;11.068;2023-08-08T12:54:33;111.07;;;5.37;;
4274;SDS011;2151;50.988;11.068;2023-08-08T12:57:00;109.80;;;5.27;;
4274;SDS011;2151;50.988;11.068;2023-08-08T12:59:27;117.07;;;5.57;;
4274;SDS011;2151;50.988;11.068;2023-08-08T13:01:54;122.20;;;6.60;;
4274;SDS011;2151;50.988;11.068;2023-08-08T13:04:21;112.50;;;5.47;;
4274;SDS011;2151;50.988;11.068;2023-08-08T13:06:48;118.00;;;7.30;;
4274;SDS011;2151;50.988;11.068;2023-08-08T13:09:16;115.30;;;6.70;;
4274;SDS011;2151;50.988;11.068;2023-08-08T13:11:42;113.67;;;6.57;;
4274;SDS011;2151;50.988;11.068;2023-08-08T13:14:09;114.83;;;6.50;;
4274;SDS011;2151;50.988;11.068;2023-08-08T13:16:36;125.90;;;7.47;;
4274;SDS011;2151;50.988;11.068;2023-08-08T13:19:02;117.10;;;6.50;;
4274;SDS011;2151;50.988;11.068;2023-08-08T13:21:30;116.10;;;6.73;;
4274;SDS011;2151;50.988;11.068;2023-08-08T13:23:57;116.97;;;8.10;;
4274;SDS011;2151;50.988;11.068;2023-08-08T13:26:23;121.43;;;7.73;;
4274;SDS011;2151;50.988;11.068;2023-08-08T13:28:50;114.53;;;7.67;;
4274;SDS011;2151;50.988;11.068;2023-08-08T13:31:17;115.90;;;8.60;;
4274;SDS011;2151;50.988;11.068;2023-08-08T13:33:44;117.67;;;8.17;;
4274;SDS011;2151;50.988;11.068;2023-08-08T13:36:10;120.00;;;9.30;;
4274;SDS011;2151;50.988;11.068;2023-08-08T13:38:37;119.37;;;9.93;;
4274;SDS011;2151;50.988;11.068;2023-08-08T13:41:04;115.67;;;9.50;;
4274;SDS011;2151;50.988;11.068;2023-08-08T13:43:30;120.27;;;10.10;;
4274;SDS011;2151;50.988;11.068;2023-08-08T13:45:58;118.00;;;9.77;;
4274;SDS011;2151;50.988;11.068;2023-08-08T13:48:26;114.17;;;8.57;;
4274;SDS011;2151;50.988;11.068;2023-08-08T13:50:53;115.10;;;8.97;;
4274;SDS011;2151;50.988;11.068;2023-08-08T13:53:20;116.57;;;8.40;;
4274;SDS011;2151;50.988;11.068;2023-08-08T13:55:47;117.97;;;8.47;;
4274;SDS011;2151;50.988;11.068;2023-08-08T13:58:13;113.77;;;8.20;;
4274;SDS011;2151;50.988;11.068;2023-08-08T14:00:40;114.27;;;8.43;;
4274;SDS011;2151;50.988;11.068;2023-08-08T14:03:07;116.57;;;8.20;;
4274;SDS011;2151;50.988;11.068;2023-08-08T14:05:34;114.00;;;8.00;;
4274;SDS011;2151;50.988;11.068;2023-08-08T14:08:00;115.23;;;8.47;;
4274;SDS011;2151;50.988;11.068;2023-08-08T14:10:27;114.97;;;9.30;;
4274;SDS011;2151;50.988;11.068;2023-08-08T14:12:53;114.00;;;8.63;;
4274;SDS011;2151;50.988;11.068;2023-08-08T14:15:20;116.07;;;9.83;;
4274;SDS011;2151;50.988;11.068;2023-08-08T14:17:47;115.37;;;9.00;;
4274;SDS011;2151;50.988;11.068;2023-08-08T14:20:14;118.80;;;9.47;;
4274;SDS011;2151;50.988;11.068;2023-08-08T14:22:43;116.07;;;9.30;;
4274;SDS011;2151;50.988;11.068;2023-08-08T14:25:11;118.53;;;9.40;;
4274;SDS011;2151;50.988;11.068;2023-08-08T14:27:37;114.97;;;9.57;;
4274;SDS011;2151;50.988;11.068;2023-08-08T14:30:04;117.60;;;9.60;;
4274;SDS011;2151;50.988;11.068;2023-08-08T14:32:31;118.77;;;9.70;;
4274;SDS011;2151;50.988;11.068;2023-08-08T14:34:59;116.07;;;10.00;;
4274;SDS011;2151;50.988;11.068;2023-08-08T14:37:26;117.67;;;9.00;;